Flight Track Log - Related Links

Times and Time Zones

All times are in EDT time to prevent confusion due to time zone crossing. See the ASA65 flight status page for this flight to view local times or setup timezone preferences in your user account.

Time Position Orientation Groundspeed Altitude Reporting Facility
EDT Latitude Longitude Course Direction KTS MPH feet Rate Location/Type
Thu 04:57:32 PM 58.3500 -134.7000 297° West 230 265 3,000  Level Anchorage Center
Thu 04:58:32 PM 58.3500 -134.8500 270° West 270 311 6,300 3,550 Climbing Anchorage Center
Thu 04:59:32 PM 58.3833 -134.9667 299° West 280 322 10,100 2,700 Climbing Anchorage Center
Thu 05:00:32 PM 58.4333 -135.1000 306° West 310 357 11,700 2,200 Climbing Anchorage Center
Thu 05:01:32 PM 58.4833 -135.2667 300° West 350 403 14,500 2,750 Climbing Anchorage Center
Thu 05:02:00 PM 58.6530 -135.6899 297° West  Level FlightAware Approximate
Thu 05:02:32 PM 58.5333 -135.4167 303° West 370 426 17,200  Level Anchorage Center
Thu 05:03:33 PM 58.5833 -135.6000 298° West 380 437 19,600 2,231 Climbing Anchorage Center
Thu 05:04:33 PM 58.6167 -135.7833 289° West 390 449 21,700 2,150 Climbing Anchorage Center
Thu 05:05:33 PM 58.6667 -135.9833 296° West 390 449 23,900 2,100 Climbing Anchorage Center
Thu 05:06:33 PM 58.7167 -136.1833 296° West 400 460 25,900 1,750 Climbing Anchorage Center
Thu 05:07:33 PM 58.7667 -136.4000 294° West 410 472 27,400 1,850 Climbing Anchorage Center
Thu 05:08:33 PM 58.8167 -136.6167 294° West 420 483 29,600 1,300 Climbing Anchorage Center
Thu 05:09:33 PM 58.8500 -136.8167 288° West 410 472 30,000 200 Climbing Anchorage Center
Thu 05:10:33 PM 58.9000 -137.0167 296° West 410 472 30,000  Level Anchorage Center
Thu 05:11:33 PM 58.9500 -137.2167 296° West 410 472 30,000  Level Anchorage Center
Thu 05:12:33 PM 58.9833 -137.4167 288° West 400 460 30,000  Level Anchorage Center
Thu 05:13:33 PM 59.0333 -137.6167 296° West 410 472 30,000  Level Anchorage Center
Thu 05:14:33 PM 59.0833 -137.8333 294° West 410 472 30,000  Level Anchorage Center
Thu 05:15:33 PM 59.1167 -138.0333 288° West 410 472 30,000  Level Anchorage Center
Thu 05:16:33 PM 59.1667 -138.2500 294° West 410 472 30,000  Level Anchorage Center
Thu 05:17:34 PM 59.2167 -138.4500 296° West 410 472 30,000  Level Anchorage Center
Thu 05:18:34 PM 59.2500 -138.6667 287° West 410 472 30,000  Level Anchorage Center
Thu 05:19:34 PM 59.3000 -138.8667 296° West 410 472 30,000  Level Anchorage Center
Thu 05:20:34 PM 59.3333 -139.0833 287° West 410 472 30,000  Level Anchorage Center
Thu 05:21:34 PM 59.3833 -139.2833 296° West 410 472 30,000  Level Anchorage Center
Thu 05:22:34 PM 59.4167 -139.4667 290° West 410 472 30,000  Level Anchorage Center
Thu 05:23:34 PM 59.4500 -139.6833 287° West 420 483 30,000  Level Anchorage Center
Thu 05:25:34 PM 59.5333 -140.1000 292° West 410 472 30,000  Level Anchorage Center
Thu 05:26:35 PM 59.5667 -140.3167 287° West 410 472 30,000  Level Anchorage Center
Thu 05:27:34 PM 59.6167 -140.5333 295° West 410 472 30,000  Level Anchorage Center
Thu 05:28:34 PM 59.6500 -140.7500 287° West 410 472 30,000  Level Anchorage Center
Thu 05:29:35 PM 59.6833 -140.9667 287° West 400 460 30,000  Level Anchorage Center
Thu 05:30:34 PM 59.7333 -141.1667 296° West 410 472 30,000  Level Anchorage Center
Thu 05:31:35 PM 59.7667 -141.4000 286° West 420 483 30,000  Level Anchorage Center
Thu 05:32:35 PM 59.8000 -141.6000 288° West 410 472 30,000  Level Anchorage Center
Thu 05:33:35 PM 59.8500 -141.8333 293° West 420 483 30,000  Level Anchorage Center
Thu 05:34:35 PM 59.8833 -142.0500 287° West 420 483 30,000  Level Anchorage Center
Thu 05:35:35 PM 59.9167 -142.2667 287° West 410 472 30,000  Level Anchorage Center
Thu 05:36:35 PM 59.9500 -142.4833 287° West 420 483 30,000  Level Anchorage Center
Thu 05:37:35 PM 59.9833 -142.7000 287° West 400 460 30,000  Level Anchorage Center
Thu 05:38:35 PM 60.0333 -142.9167 295° West 410 472 30,000  Level Anchorage Center
Thu 05:39:35 PM 60.0667 -143.1333 287° West 410 472 30,000  Level Anchorage Center
Thu 05:40:35 PM 60.1000 -143.3333 289° West 420 483 30,000  Level Anchorage Center
Thu 05:41:36 PM 60.1333 -143.5667 286° West 420 483 30,000  Level Anchorage Center
Thu 05:42:36 PM 60.1667 -143.7833 287° West 410 472 30,000  Level Anchorage Center
Thu 05:43:36 PM 60.2000 -144.0000 287° West 400 460 30,000  Level Anchorage Center
Thu 05:44:36 PM 60.2333 -144.2167 287° West 410 472 30,000  Level Anchorage Center
Thu 05:45:36 PM 60.2667 -144.4500 286° West 420 483 30,000  Level Anchorage Center
Thu 05:46:36 PM 60.3000 -144.6667 287° West 420 483 30,000  Level Anchorage Center
Thu 05:47:36 PM 60.3333 -144.9000 286° West 420 483 30,000  Level Anchorage Center
Thu 05:48:36 PM 60.3667 -145.1333 286° West 420 483 30,000  Level Anchorage Center
Thu 05:49:36 PM 60.4000 -145.3500 287° West 420 483 30,000  Level Anchorage Center
Thu 05:50:36 PM 60.4333 -145.5833 286° West 430 495 30,000  Level Anchorage Center
Thu 05:51:36 PM 60.4667 -145.8167 286° West 420 483 30,000  Level Anchorage Center
Thu 05:52:36 PM 60.5000 -146.0500 286° West 420 483 30,000  Level Anchorage Center
Thu 05:53:36 PM 60.5167 -146.2833 278° West 420 483 30,000  Level Anchorage Center
Thu 05:54:36 PM 60.5500 -146.5167 286° West 420 483 30,000  Level Anchorage Center
Thu 05:55:37 PM 60.5833 -146.7333 287° West 420 483 30,000  Level Anchorage Center
Thu 05:56:37 PM 60.6167 -146.9667 286° West 420 483 30,000  Level Anchorage Center
Thu 05:57:37 PM 60.6500 -147.2000 286° West 420 483 30,000  Level Anchorage Center
Thu 05:58:37 PM 60.6833 -147.4833 284° West 430 495 30,000  Level Anchorage Center
Thu 05:59:37 PM 60.7000 -147.7167 278° West 420 483 30,000 -850 Level Anchorage Center
Thu 06:00:37 PM 60.7333 -147.9333 288° West 410 472 28,300 -1,850 Descending Anchorage Center
Thu 06:01:37 PM 60.7667 -148.1500 288° West 400 460 26,300 -2,150 Descending Anchorage Center
Thu 06:02:37 PM 60.7833 -148.3667 279° West 390 449 24,000 -2,350 Descending Anchorage Center
Thu 06:03:37 PM 60.8000 -148.5667 280° West 380 437 21,600 -2,150 Descending Anchorage Center
Thu 06:04:37 PM 60.8333 -148.7667 289° West 350 403 19,700 -2,000 Descending Anchorage Center
Thu 06:05:37 PM 60.8500 -148.9667 280° West 330 380 17,600 -2,100 Descending Anchorage Center
Thu 06:07:00 PM 60.8895 -149.2471 292° West  Level FlightAware Approximate
Thu 06:14:00 PM 61.1543 -150.0393 65° Northeast  Level FlightAware Approximate
Thu 06:15:00 PM 61.1667 -149.9833 65° Northeast  Level FlightAware Approximate
Thu 06:16:00 PM 61.1741 -149.9982 270° West  Level Estimated
Thu 06:17:00 PM 61.1741 -149.9982 65° Northeast  Level Estimated
Thu 06:18:00 PM 61.1741 -149.9982 65° Northeast  Level Estimated
Thu 06:19:00 PM 61.1741 -149.9982 65° Northeast  Level Estimated
Thu 06:20:00 PM 61.1741 -149.9982 65° Northeast  Level Estimated
Thu 06:21:00 PM 61.1741 -149.9982 65° Northeast  Level Estimated
Thu 06:22:00 PM 61.1741 -149.9982 65° Northeast  Level Estimated
Thu 06:23:00 PM 61.1741 -149.9982 65° Northeast  Level Estimated
Thu 06:24:00 PM 61.1741 -149.9982 65° Northeast  Level Estimated
Thu 06:25:00 PM 61.1741 -149.9982 65° Northeast  Level Estimated
Thu 06:26:00 PM 61.1741 -149.9982 65° Northeast  Level Estimated
Thu 06:27:00 PM 61.1741 -149.9982 65° Northeast  Level Estimated
Thu 06:28:00 PM 61.1741 -149.9982 65° Northeast  Level Estimated

Login

Don't have an account? Register now (free) for customized features, flight alerts, and more!